sensor_id;sensor_type;location;lat;lon;timestamp;P1;durP1;ratioP1;P2;durP2;ratioP2
86135;SDS011;76795;51.360;4.546;2024-02-28T00:01:52;12.95;;;7.30;;
86135;SDS011;76795;51.360;4.546;2024-02-28T00:04:18;11.70;;;6.75;;
86135;SDS011;76795;51.360;4.546;2024-02-28T00:06:44;10.80;;;7.13;;
86135;SDS011;76795;51.360;4.546;2024-02-28T00:09:11;11.52;;;6.97;;
86135;SDS011;76795;51.360;4.546;2024-02-28T00:11:44;10.85;;;6.65;;
86135;SDS011;76795;51.360;4.546;2024-02-28T00:14:11;8.48;;;6.15;;
86135;SDS011;76795;51.360;4.546;2024-02-28T00:16:40;9.27;;;5.95;;
86135;SDS011;76795;51.360;4.546;2024-02-28T00:19:06;8.90;;;5.57;;
86135;SDS011;76795;51.360;4.546;2024-02-28T00:21:32;10.55;;;6.45;;
86135;SDS011;76795;51.360;4.546;2024-02-28T00:23:58;10.82;;;6.38;;
86135;SDS011;76795;51.360;4.546;2024-02-28T00:26:24;11.52;;;6.80;;
86135;SDS011;76795;51.360;4.546;2024-02-28T00:28:50;10.25;;;7.40;;
86135;SDS011;76795;51.360;4.546;2024-02-28T00:31:15;12.15;;;7.78;;
86135;SDS011;76795;51.360;4.546;2024-02-28T00:33:41;10.00;;;6.78;;
86135;SDS011;76795;51.360;4.546;2024-02-28T00:36:07;10.93;;;6.93;;
86135;SDS011;76795;51.360;4.546;2024-02-28T00:38:32;9.43;;;7.18;;
86135;SDS011;76795;51.360;4.546;2024-02-28T00:40:58;12.00;;;7.45;;
86135;SDS011;76795;51.360;4.546;2024-02-28T00:43:24;10.60;;;6.93;;
86135;SDS011;76795;51.360;4.546;2024-02-28T00:45:50;10.43;;;7.20;;
86135;SDS011;76795;51.360;4.546;2024-02-28T00:48:15;11.98;;;7.70;;
86135;SDS011;76795;51.360;4.546;2024-02-28T00:50:41;11.18;;;7.20;;
86135;SDS011;76795;51.360;4.546;2024-02-28T00:53:06;11.30;;;7.57;;
86135;SDS011;76795;51.360;4.546;2024-02-28T00:55:32;10.15;;;6.68;;
86135;SDS011;76795;51.360;4.546;2024-02-28T00:57:58;11.88;;;6.90;;
86135;SDS011;76795;51.360;4.546;2024-02-28T01:00:23;11.98;;;7.70;;
86135;SDS011;76795;51.360;4.546;2024-02-28T01:02:49;11.57;;;7.60;;
86135;SDS011;76795;51.360;4.546;2024-02-28T01:05:15;10.77;;;7.68;;
86135;SDS011;76795;51.360;4.546;2024-02-28T01:07:40;12.05;;;7.93;;
86135;SDS011;76795;51.360;4.546;2024-02-28T01:10:06;11.35;;;7.32;;
86135;SDS011;76795;51.360;4.546;2024-02-28T01:12:32;11.48;;;7.20;;
86135;SDS011;76795;51.360;4.546;2024-02-28T01:14:59;10.13;;;7.60;;
86135;SDS011;76795;51.360;4.546;2024-02-28T01:17:25;12.50;;;7.78;;
86135;SDS011;76795;51.360;4.546;2024-02-28T01:19:50;10.80;;;7.85;;
86135;SDS011;76795;51.360;4.546;2024-02-28T01:22:16;12.07;;;7.85;;
86135;SDS011;76795;51.360;4.546;2024-02-28T01:24:42;13.70;;;7.40;;
86135;SDS011;76795;51.360;4.546;2024-02-28T01:27:07;11.32;;;7.75;;
86135;SDS011;76795;51.360;4.546;2024-02-28T01:29:33;11.73;;;7.82;;
86135;SDS011;76795;51.360;4.546;2024-02-28T01:31:59;14.05;;;8.30;;
86135;SDS011;76795;51.360;4.546;2024-02-28T01:34:24;11.57;;;8.23;;
86135;SDS011;76795;51.360;4.546;2024-02-28T01:36:50;14.40;;;8.43;;
86135;SDS011;76795;51.360;4.546;2024-02-28T01:39:16;12.90;;;7.57;;
86135;SDS011;76795;51.360;4.546;2024-02-28T01:41:49;13.82;;;8.25;;
86135;SDS011;76795;51.360;4.546;2024-02-28T01:44:19;12.02;;;7.55;;
86135;SDS011;76795;51.360;4.546;2024-02-28T01:46:44;11.90;;;7.43;;
86135;SDS011;76795;51.360;4.546;2024-02-28T01:49:11;14.10;;;8.10;;
86135;SDS011;76795;51.360;4.546;2024-02-28T01:51:37;12.45;;;7.60;;
86135;SDS011;76795;51.360;4.546;2024-02-28T01:54:03;13.52;;;8.02;;
86135;SDS011;76795;51.360;4.546;2024-02-28T01:56:29;10.23;;;7.30;;
86135;SDS011;76795;51.360;4.546;2024-02-28T01:58:55;10.98;;;7.63;;
86135;SDS011;76795;51.360;4.546;2024-02-28T02:01:22;11.35;;;7.93;;
86135;SDS011;76795;51.360;4.546;2024-02-28T02:03:48;12.82;;;8.40;;
86135;SDS011;76795;51.360;4.546;2024-02-28T02:06:13;11.40;;;8.70;;
86135;SDS011;76795;51.360;4.546;2024-02-28T02:08:39;13.10;;;7.78;;
86135;SDS011;76795;51.360;4.546;2024-02-28T02:11:06;12.52;;;8.38;;
86135;SDS011;76795;51.360;4.546;2024-02-28T02:13:32;11.57;;;7.85;;
86135;SDS011;76795;51.360;4.546;2024-02-28T02:15:57;11.25;;;7.78;;
86135;SDS011;76795;51.360;4.546;2024-02-28T02:18:23;11.68;;;8.20;;
86135;SDS011;76795;51.360;4.546;2024-02-28T02:20:50;11.93;;;8.18;;
86135;SDS011;76795;51.360;4.546;2024-02-28T02:23:19;13.13;;;8.48;;
86135;SDS011;76795;51.360;4.546;2024-02-28T02:25:45;13.98;;;8.65;;
86135;SDS011;76795;51.360;4.546;2024-02-28T02:28:12;11.57;;;8.75;;
86135;SDS011;76795;51.360;4.546;2024-02-28T02:30:38;12.13;;;8.10;;
86135;SDS011;76795;51.360;4.546;2024-02-28T02:33:04;11.20;;;8.02;;
86135;SDS011;76795;51.360;4.546;2024-02-28T02:35:31;11.45;;;7.93;;
86135;SDS011;76795;51.360;4.546;2024-02-28T02:37:57;13.70;;;8.68;;
86135;SDS011;76795;51.360;4.546;2024-02-28T02:40:23;13.48;;;7.80;;
86135;SDS011;76795;51.360;4.546;2024-02-28T02:42:48;13.02;;;8.65;;
86135;SDS011;76795;51.360;4.546;2024-02-28T02:45:14;12.10;;;8.07;;
86135;SDS011;76795;51.360;4.546;2024-02-28T02:47:39;13.93;;;7.82;;
86135;SDS011;76795;51.360;4.546;2024-02-28T02:50:05;13.05;;;8.38;;
86135;SDS011;76795;51.360;4.546;2024-02-28T02:52:31;12.30;;;8.35;;
86135;SDS011;76795;51.360;4.546;2024-02-28T02:54:57;14.07;;;8.38;;
86135;SDS011;76795;51.360;4.546;2024-02-28T02:57:23;11.98;;;8.00;;
86135;SDS011;76795;51.360;4.546;2024-02-28T02:59:48;12.05;;;7.78;;
86135;SDS011;76795;51.360;4.546;2024-02-28T03:02:14;15.68;;;8.05;;
86135;SDS011;76795;51.360;4.546;2024-02-28T03:04:40;14.02;;;8.68;;
86135;SDS011;76795;51.360;4.546;2024-02-28T03:07:05;12.50;;;7.75;;
86135;SDS011;76795;51.360;4.546;2024-02-28T03:09:31;11.68;;;7.45;;
86135;SDS011;76795;51.360;4.546;2024-02-28T03:11:57;13.43;;;7.90;;
86135;SDS011;76795;51.360;4.546;2024-02-28T03:14:22;11.38;;;7.78;;
86135;SDS011;76795;51.360;4.546;2024-02-28T03:16:50;11.60;;;7.85;;
86135;SDS011;76795;51.360;4.546;2024-02-28T03:19:15;13.25;;;7.50;;
86135;SDS011;76795;51.360;4.546;2024-02-28T03:21:41;10.77;;;7.38;;
86135;SDS011;76795;51.360;4.546;2024-02-28T03:24:07;12.27;;;7.80;;
86135;SDS011;76795;51.360;4.546;2024-02-28T03:26:32;12.57;;;7.85;;
86135;SDS011;76795;51.360;4.546;2024-02-28T03:28:58;11.25;;;7.53;;
86135;SDS011;76795;51.360;4.546;2024-02-28T03:31:25;12.35;;;7.40;;
86135;SDS011;76795;51.360;4.546;2024-02-28T03:33:51;11.55;;;7.72;;
86135;SDS011;76795;51.360;4.546;2024-02-28T03:36:16;11.55;;;7.85;;
86135;SDS011;76795;51.360;4.546;2024-02-28T03:38:42;14.55;;;8.85;;
86135;SDS011;76795;51.360;4.546;2024-02-28T03:41:08;11.98;;;7.95;;
86135;SDS011;76795;51.360;4.546;2024-02-28T03:43:34;16.58;;;8.60;;
86135;SDS011;76795;51.360;4.546;2024-02-28T03:46:00;12.13;;;8.80;;
86135;SDS011;76795;51.360;4.546;2024-02-28T03:48:25;11.60;;;8.18;;
86135;SDS011;76795;51.360;4.546;2024-02-28T03:50:51;14.40;;;8.90;;
86135;SDS011;76795;51.360;4.546;2024-02-28T03:53:17;14.00;;;7.72;;
86135;SDS011;76795;51.360;4.546;2024-02-28T03:55:42;13.20;;;8.75;;
86135;SDS011;76795;51.360;4.546;2024-02-28T03:58:11;13.82;;;8.50;;
86135;SDS011;76795;51.360;4.546;2024-02-28T04:00:37;12.27;;;8.10;;
86135;SDS011;76795;51.360;4.546;2024-02-28T04:03:03;13.95;;;8.85;;
86135;SDS011;76795;51.360;4.546;2024-02-28T04:05:30;14.68;;;9.63;;
86135;SDS011;76795;51.360;4.546;2024-02-28T04:07:56;14.02;;;8.55;;
86135;SDS011;76795;51.360;4.546;2024-02-28T04:10:22;15.48;;;8.80;;
86135;SDS011;76795;51.360;4.546;2024-02-28T04:12:47;12.90;;;8.10;;
86135;SDS011;76795;51.360;4.546;2024-02-28T04:15:13;17.40;;;8.80;;
86135;SDS011;76795;51.360;4.546;2024-02-28T04:17:40;14.27;;;9.48;;
86135;SDS011;76795;51.360;4.546;2024-02-28T04:20:09;13.02;;;9.20;;
86135;SDS011;76795;51.360;4.546;2024-02-28T04:22:35;12.95;;;8.63;;
86135;SDS011;76795;51.360;4.546;2024-02-28T04:25:01;15.75;;;9.23;;
86135;SDS011;76795;51.360;4.546;2024-02-28T04:27:27;13.43;;;9.35;;
86135;SDS011;76795;51.360;4.546;2024-02-28T04:29:53;14.30;;;9.48;;
86135;SDS011;76795;51.360;4.546;2024-02-28T04:32:18;13.35;;;9.20;;
86135;SDS011;76795;51.360;4.546;2024-02-28T04:34:44;13.73;;;8.95;;
86135;SDS011;76795;51.360;4.546;2024-02-28T04:37:10;14.50;;;8.80;;
86135;SDS011;76795;51.360;4.546;2024-02-28T04:39:36;14.25;;;8.82;;
86135;SDS011;76795;51.360;4.546;2024-02-28T04:42:02;14.45;;;9.15;;
86135;SDS011;76795;51.360;4.546;2024-02-28T04:44:27;15.75;;;9.15;;
86135;SDS011;76795;51.360;4.546;2024-02-28T04:46:53;14.73;;;9.55;;
86135;SDS011;76795;51.360;4.546;2024-02-28T04:49:19;16.88;;;9.73;;
86135;SDS011;76795;51.360;4.546;2024-02-28T04:51:45;14.40;;;9.73;;
86135;SDS011;76795;51.360;4.546;2024-02-28T04:54:10;18.02;;;9.60;;
86135;SDS011;76795;51.360;4.546;2024-02-28T04:56:39;15.57;;;9.65;;
86135;SDS011;76795;51.360;4.546;2024-02-28T04:59:06;16.98;;;9.50;;
86135;SDS011;76795;51.360;4.546;2024-02-28T05:01:32;13.27;;;8.70;;
86135;SDS011;76795;51.360;4.546;2024-02-28T05:03:58;13.95;;;8.60;;
86135;SDS011;76795;51.360;4.546;2024-02-28T05:06:24;12.55;;;8.93;;
86135;SDS011;76795;51.360;4.546;2024-02-28T05:08:50;14.13;;;8.55;;
86135;SDS011;76795;51.360;4.546;2024-02-28T05:11:15;16.20;;;9.70;;
86135;SDS011;76795;51.360;4.546;2024-02-28T05:13:41;14.23;;;8.40;;
86135;SDS011;76795;51.360;4.546;2024-02-28T05:16:13;13.10;;;9.32;;
86135;SDS011;76795;51.360;4.546;2024-02-28T05:18:39;16.90;;;10.10;;
86135;SDS011;76795;51.360;4.546;2024-02-28T05:21:04;13.82;;;8.85;;
86135;SDS011;76795;51.360;4.546;2024-02-28T05:23:30;13.57;;;9.27;;
86135;SDS011;76795;51.360;4.546;2024-02-28T05:25:56;14.95;;;9.95;;
86135;SDS011;76795;51.360;4.546;2024-02-28T05:28:22;16.00;;;10.13;;
86135;SDS011;76795;51.360;4.546;2024-02-28T05:30:48;16.17;;;9.48;;
86135;SDS011;76795;51.360;4.546;2024-02-28T05:33:15;16.05;;;10.23;;
86135;SDS011;76795;51.360;4.546;2024-02-28T05:35:40;19.08;;;12.43;;
86135;SDS011;76795;51.360;4.546;2024-02-28T05:38:06;16.63;;;11.65;;
86135;SDS011;76795;51.360;4.546;2024-02-28T05:40:32;20.30;;;12.48;;
86135;SDS011;76795;51.360;4.546;2024-02-28T05:42:58;19.83;;;13.07;;
86135;SDS011;76795;51.360;4.546;2024-02-28T05:45:23;20.60;;;12.18;;
86135;SDS011;76795;51.360;4.546;2024-02-28T05:47:49;19.02;;;12.13;;
86135;SDS011;76795;51.360;4.546;2024-02-28T05:50:15;19.30;;;12.70;;
86135;SDS011;76795;51.360;4.546;2024-02-28T05:52:43;17.85;;;12.20;;
86135;SDS011;76795;51.360;4.546;2024-02-28T05:55:09;20.17;;;13.38;;
86135;SDS011;76795;51.360;4.546;2024-02-28T05:57:35;21.85;;;13.52;;
86135;SDS011;76795;51.360;4.546;2024-02-28T06:00:01;18.83;;;12.85;;
86135;SDS011;76795;51.360;4.546;2024-02-28T06:02:33;21.58;;;13.60;;
86135;SDS011;76795;51.360;4.546;2024-02-28T06:04:59;20.55;;;13.65;;
86135;SDS011;76795;51.360;4.546;2024-02-28T06:07:25;22.27;;;14.38;;
86135;SDS011;76795;51.360;4.546;2024-02-28T06:09:51;23.13;;;13.63;;
86135;SDS011;76795;51.360;4.546;2024-02-28T06:12:16;21.10;;;14.13;;
86135;SDS011;76795;51.360;4.546;2024-02-28T06:14:42;27.27;;;14.27;;
86135;SDS011;76795;51.360;4.546;2024-02-28T06:17:08;21.92;;;14.10;;
86135;SDS011;76795;51.360;4.546;2024-02-28T06:19:33;23.80;;;13.65;;
86135;SDS011;76795;51.360;4.546;2024-02-28T06:21:59;22.60;;;14.55;;
86135;SDS011;76795;51.360;4.546;2024-02-28T06:24:25;23.08;;;14.30;;
86135;SDS011;76795;51.360;4.546;2024-02-28T06:26:50;20.10;;;13.43;;
86135;SDS011;76795;51.360;4.546;2024-02-28T06:29:16;18.95;;;13.52;;
86135;SDS011;76795;51.360;4.546;2024-02-28T06:31:42;20.55;;;13.38;;
86135;SDS011;76795;51.360;4.546;2024-02-28T06:34:07;21.77;;;13.77;;
86135;SDS011;76795;51.360;4.546;2024-02-28T06:36:33;24.23;;;14.38;;
86135;SDS011;76795;51.360;4.546;2024-02-28T06:38:59;21.67;;;13.63;;
86135;SDS011;76795;51.360;4.546;2024-02-28T06:41:24;21.92;;;13.05;;
86135;SDS011;76795;51.360;4.546;2024-02-28T06:43:50;20.52;;;13.90;;
86135;SDS011;76795;51.360;4.546;2024-02-28T06:46:15;23.75;;;13.90;;
86135;SDS011;76795;51.360;4.546;2024-02-28T06:48:42;22.45;;;14.35;;
86135;SDS011;76795;51.360;4.546;2024-02-28T06:51:08;22.23;;;14.75;;
86135;SDS011;76795;51.360;4.546;2024-02-28T06:53:34;24.00;;;14.73;;
86135;SDS011;76795;51.360;4.546;2024-02-28T06:56:01;23.05;;;15.07;;
86135;SDS011;76795;51.360;4.546;2024-02-28T06:58:27;23.20;;;15.85;;
86135;SDS011;76795;51.360;4.546;2024-02-28T07:00:53;20.77;;;14.57;;
86135;SDS011;76795;51.360;4.546;2024-02-28T07:03:18;22.75;;;14.20;;
86135;SDS011;76795;51.360;4.546;2024-02-28T07:05:44;21.63;;;14.18;;
86135;SDS011;76795;51.360;4.546;2024-02-28T07:08:10;25.08;;;14.77;;
86135;SDS011;76795;51.360;4.546;2024-02-28T07:10:36;23.10;;;15.40;;
86135;SDS011;76795;51.360;4.546;2024-02-28T07:13:02;20.88;;;13.93;;
86135;SDS011;76795;51.360;4.546;2024-02-28T07:15:28;23.77;;;14.55;;
86135;SDS011;76795;51.360;4.546;2024-02-28T07:17:53;21.65;;;13.90;;
86135;SDS011;76795;51.360;4.546;2024-02-28T07:20:19;23.00;;;14.10;;
86135;SDS011;76795;51.360;4.546;2024-02-28T07:22:45;24.70;;;14.60;;
86135;SDS011;76795;51.360;4.546;2024-02-28T07:25:11;22.55;;;14.43;;
86135;SDS011;76795;51.360;4.546;2024-02-28T07:27:37;24.58;;;15.00;;
86135;SDS011;76795;51.360;4.546;2024-02-28T07:30:03;28.25;;;15.18;;
86135;SDS011;76795;51.360;4.546;2024-02-28T07:32:29;26.35;;;14.32;;
86135;SDS011;76795;51.360;4.546;2024-02-28T07:34:59;20.83;;;14.02;;
86135;SDS011;76795;51.360;4.546;2024-02-28T07:37:25;22.95;;;14.13;;
86135;SDS011;76795;51.360;4.546;2024-02-28T07:39:51;21.35;;;13.65;;
86135;SDS011;76795;51.360;4.546;2024-02-28T07:42:17;22.45;;;13.98;;
86135;SDS011;76795;51.360;4.546;2024-02-28T07:44:43;24.92;;;15.35;;
86135;SDS011;76795;51.360;4.546;2024-02-28T07:47:08;23.10;;;15.10;;
86135;SDS011;76795;51.360;4.546;2024-02-28T07:49:34;23.27;;;13.70;;
86135;SDS011;76795;51.360;4.546;2024-02-28T07:52:00;24.38;;;14.30;;
86135;SDS011;76795;51.360;4.546;2024-02-28T07:54:25;21.17;;;14.65;;
86135;SDS011;76795;51.360;4.546;2024-02-28T07:56:52;22.45;;;13.93;;
86135;SDS011;76795;51.360;4.546;2024-02-28T07:59:18;21.83;;;14.50;;
86135;SDS011;76795;51.360;4.546;2024-02-28T08:01:44;23.95;;;15.57;;
86135;SDS011;76795;51.360;4.546;2024-02-28T08:04:10;24.42;;;14.98;;
86135;SDS011;76795;51.360;4.546;2024-02-28T08:06:35;25.70;;;15.43;;
86135;SDS011;76795;51.360;4.546;2024-02-28T08:09:01;26.33;;;15.82;;
86135;SDS011;76795;51.360;4.546;2024-02-28T08:11:29;24.73;;;14.35;;
86135;SDS011;76795;51.360;4.546;2024-02-28T08:13:55;28.20;;;14.63;;
86135;SDS011;76795;51.360;4.546;2024-02-28T08:16:21;23.52;;;14.95;;
86135;SDS011;76795;51.360;4.546;2024-02-28T08:18:46;22.92;;;15.40;;
86135;SDS011;76795;51.360;4.546;2024-02-28T08:21:12;24.48;;;15.82;;
86135;SDS011;76795;51.360;4.546;2024-02-28T08:23:38;27.70;;;15.45;;
86135;SDS011;76795;51.360;4.546;2024-02-28T08:26:03;27.67;;;16.30;;
86135;SDS011;76795;51.360;4.546;2024-02-28T08:28:29;32.45;;;17.02;;
86135;SDS011;76795;51.360;4.546;2024-02-28T08:30:55;25.10;;;16.38;;
86135;SDS011;76795;51.360;4.546;2024-02-28T08:33:20;22.73;;;15.13;;
86135;SDS011;76795;51.360;4.546;2024-02-28T08:35:46;26.48;;;15.57;;
86135;SDS011;76795;51.360;4.546;2024-02-28T08:38:12;24.80;;;16.48;;
86135;SDS011;76795;51.360;4.546;2024-02-28T08:40:38;24.55;;;17.10;;
86135;SDS011;76795;51.360;4.546;2024-02-28T08:43:04;22.58;;;14.82;;
86135;SDS011;76795;51.360;4.546;2024-02-28T08:45:30;21.95;;;11.30;;
86135;SDS011;76795;51.360;4.546;2024-02-28T08:47:55;25.30;;;15.57;;
86135;SDS011;76795;51.360;4.546;2024-02-28T08:50:22;24.15;;;14.63;;
86135;SDS011;76795;51.360;4.546;2024-02-28T08:52:48;25.45;;;15.40;;
86135;SDS011;76795;51.360;4.546;2024-02-28T08:55:14;25.83;;;15.10;;
86135;SDS011;76795;51.360;4.546;2024-02-28T08:57:43;22.05;;;14.43;;
86135;SDS011;76795;51.360;4.546;2024-02-28T09:00:09;22.10;;;15.10;;
86135;SDS011;76795;51.360;4.546;2024-02-28T09:02:36;25.85;;;16.15;;
86135;SDS011;76795;51.360;4.546;2024-02-28T09:05:02;23.75;;;14.93;;
86135;SDS011;76795;51.360;4.546;2024-02-28T09:07:28;27.08;;;15.75;;
86135;SDS011;76795;51.360;4.546;2024-02-28T09:09:55;25.27;;;15.57;;
86135;SDS011;76795;51.360;4.546;2024-02-28T09:12:20;28.08;;;17.05;;
86135;SDS011;76795;51.360;4.546;2024-02-28T09:14:46;22.23;;;16.35;;
86135;SDS011;76795;51.360;4.546;2024-02-28T09:17:14;26.17;;;16.90;;
86135;SDS011;76795;51.360;4.546;2024-02-28T09:19:40;27.17;;;15.88;;
86135;SDS011;76795;51.360;4.546;2024-02-28T09:22:05;27.67;;;16.25;;
86135;SDS011;76795;51.360;4.546;2024-02-28T09:24:31;27.45;;;15.70;;
86135;SDS011;76795;51.360;4.546;2024-02-28T09:26:58;26.25;;;16.67;;
86135;SDS011;76795;51.360;4.546;2024-02-28T09:29:24;33.22;;;15.27;;
86135;SDS011;76795;51.360;4.546;2024-02-28T09:31:50;28.52;;;16.83;;
86135;SDS011;76795;51.360;4.546;2024-02-28T09:34:16;32.25;;;15.88;;
86135;SDS011;76795;51.360;4.546;2024-02-28T09:36:42;31.60;;;16.27;;
86135;SDS011;76795;51.360;4.546;2024-02-28T09:39:10;29.05;;;16.67;;
86135;SDS011;76795;51.360;4.546;2024-02-28T09:41:40;29.45;;;16.45;;
86135;SDS011;76795;51.360;4.546;2024-02-28T09:44:06;31.25;;;16.73;;
86135;SDS011;76795;51.360;4.546;2024-02-28T09:46:33;28.00;;;15.35;;
86135;SDS011;76795;51.360;4.546;2024-02-28T09:49:04;34.42;;;15.57;;
86135;SDS011;76795;51.360;4.546;2024-02-28T09:51:34;28.75;;;16.55;;
86135;SDS011;76795;51.360;4.546;2024-02-28T09:54:01;34.08;;;17.02;;
86135;SDS011;76795;51.360;4.546;2024-02-28T09:56:28;26.55;;;15.15;;
86135;SDS011;76795;51.360;4.546;2024-02-28T09:58:54;31.20;;;15.50;;
86135;SDS011;76795;51.360;4.546;2024-02-28T10:01:23;33.45;;;17.05;;
86135;SDS011;76795;51.360;4.546;2024-02-28T10:03:51;38.05;;;17.15;;
86135;SDS011;76795;51.360;4.546;2024-02-28T10:06:19;38.53;;;17.95;;
86135;SDS011;76795;51.360;4.546;2024-02-28T10:08:45;38.72;;;17.50;;
86135;SDS011;76795;51.360;4.546;2024-02-28T10:11:22;34.40;;;17.77;;
86135;SDS011;76795;51.360;4.546;2024-02-28T10:13:49;35.97;;;17.80;;
86135;SDS011;76795;51.360;4.546;2024-02-28T10:16:15;34.15;;;18.10;;
86135;SDS011;76795;51.360;4.546;2024-02-28T10:18:44;35.20;;;15.68;;
86135;SDS011;76795;51.360;4.546;2024-02-28T10:21:10;30.40;;;17.10;;
86135;SDS011;76795;51.360;4.546;2024-02-28T10:23:41;27.15;;;14.38;;
86135;SDS011;76795;51.360;4.546;2024-02-28T10:26:09;31.38;;;16.20;;
86135;SDS011;76795;51.360;4.546;2024-02-28T10:28:41;24.17;;;14.55;;
86135;SDS011;76795;51.360;4.546;2024-02-28T10:31:08;34.03;;;17.05;;
86135;SDS011;76795;51.360;4.546;2024-02-28T10:33:35;33.55;;;16.85;;
86135;SDS011;76795;51.360;4.546;2024-02-28T10:36:04;33.80;;;16.50;;
86135;SDS011;76795;51.360;4.546;2024-02-28T10:38:31;31.40;;;14.45;;
86135;SDS011;76795;51.360;4.546;2024-02-28T10:43:30;31.95;;;14.60;;
86135;SDS011;76795;51.360;4.546;2024-02-28T10:45:59;26.58;;;14.63;;
86135;SDS011;76795;51.360;4.546;2024-02-28T10:48:25;31.25;;;13.27;;
86135;SDS011;76795;51.360;4.546;2024-02-28T10:50:51;27.33;;;12.95;;
86135;SDS011;76795;51.360;4.546;2024-02-28T10:53:21;31.17;;;14.70;;
86135;SDS011;76795;51.360;4.546;2024-02-28T10:56:03;28.25;;;15.38;;
86135;SDS011;76795;51.360;4.546;2024-02-28T10:58:36;32.58;;;14.65;;
86135;SDS011;76795;51.360;4.546;2024-02-28T11:01:05;37.30;;;15.30;;
86135;SDS011;76795;51.360;4.546;2024-02-28T11:03:32;30.45;;;13.13;;
86135;SDS011;76795;51.360;4.546;2024-02-28T11:05:58;27.90;;;14.20;;
86135;SDS011;76795;51.360;4.546;2024-02-28T11:08:24;31.83;;;15.73;;
86135;SDS011;76795;51.360;4.546;2024-02-28T11:10:59;22.63;;;11.93;;
86135;SDS011;76795;51.360;4.546;2024-02-28T11:13:29;26.63;;;12.55;;
86135;SDS011;76795;51.360;4.546;2024-02-28T11:15:56;24.13;;;12.18;;
86135;SDS011;76795;51.360;4.546;2024-02-28T11:18:35;22.02;;;12.27;;
86135;SDS011;76795;51.360;4.546;2024-02-28T11:21:01;24.10;;;12.35;;
86135;SDS011;76795;51.360;4.546;2024-02-28T11:23:35;20.10;;;11.98;;
86135;SDS011;76795;51.360;4.546;2024-02-28T11:26:02;21.80;;;13.13;;
86135;SDS011;76795;51.360;4.546;2024-02-28T11:28:28;20.65;;;11.50;;
86135;SDS011;76795;51.360;4.546;2024-02-28T11:30:54;20.00;;;10.05;;
86135;SDS011;76795;51.360;4.546;2024-02-28T11:33:20;15.20;;;9.52;;
86135;SDS011;76795;51.360;4.546;2024-02-28T11:35:53;17.60;;;10.57;;
86135;SDS011;76795;51.360;4.546;2024-02-28T11:38:24;18.98;;;11.50;;
86135;SDS011;76795;51.360;4.546;2024-02-28T11:40:52;20.77;;;11.75;;
86135;SDS011;76795;51.360;4.546;2024-02-28T11:43:20;17.02;;;10.95;;
86135;SDS011;76795;51.360;4.546;2024-02-28T11:45:46;20.77;;;10.25;;
86135;SDS011;76795;51.360;4.546;2024-02-28T11:48:13;20.08;;;11.13;;
86135;SDS011;76795;51.360;4.546;2024-02-28T11:50:39;19.98;;;10.57;;
86135;SDS011;76795;51.360;4.546;2024-02-28T11:53:05;16.50;;;10.68;;
86135;SDS011;76795;51.360;4.546;2024-02-28T11:55:32;16.83;;;10.77;;
86135;SDS011;76795;51.360;4.546;2024-02-28T11:57:58;15.85;;;10.18;;
86135;SDS011;76795;51.360;4.546;2024-02-28T12:00:23;16.63;;;9.25;;
86135;SDS011;76795;51.360;4.546;2024-02-28T12:02:49;18.90;;;10.02;;
86135;SDS011;76795;51.360;4.546;2024-02-28T12:05:15;18.83;;;10.27;;
86135;SDS011;76795;51.360;4.546;2024-02-28T12:07:41;15.45;;;9.60;;
86135;SDS011;76795;51.360;4.546;2024-02-28T12:10:08;17.65;;;10.85;;
86135;SDS011;76795;51.360;4.546;2024-02-28T12:12:34;13.20;;;9.30;;
86135;SDS011;76795;51.360;4.546;2024-02-28T12:15:00;12.20;;;8.23;;
86135;SDS011;76795;51.360;4.546;2024-02-28T12:17:28;16.10;;;9.18;;
86135;SDS011;76795;51.360;4.546;2024-02-28T12:19:54;11.15;;;8.50;;
86135;SDS011;76795;51.360;4.546;2024-02-28T12:22:20;11.50;;;7.72;;
86135;SDS011;76795;51.360;4.546;2024-02-28T12:24:46;14.05;;;8.48;;
86135;SDS011;76795;51.360;4.546;2024-02-28T12:27:12;15.15;;;8.70;;
86135;SDS011;76795;51.360;4.546;2024-02-28T12:29:38;11.95;;;8.48;;
86135;SDS011;76795;51.360;4.546;2024-02-28T12:32:04;12.95;;;8.30;;
86135;SDS011;76795;51.360;4.546;2024-02-28T12:34:29;13.80;;;8.23;;
86135;SDS011;76795;51.360;4.546;2024-02-28T12:36:55;11.13;;;7.53;;
86135;SDS011;76795;51.360;4.546;2024-02-28T12:39:21;13.20;;;7.13;;
86135;SDS011;76795;51.360;4.546;2024-02-28T12:41:47;11.75;;;7.18;;
86135;SDS011;76795;51.360;4.546;2024-02-28T12:44:13;11.13;;;7.00;;
86135;SDS011;76795;51.360;4.546;2024-02-28T12:46:39;12.15;;;7.28;;
86135;SDS011;76795;51.360;4.546;2024-02-28T12:49:04;12.40;;;7.40;;
86135;SDS011;76795;51.360;4.546;2024-02-28T12:51:42;13.25;;;6.72;;
86135;SDS011;76795;51.360;4.546;2024-02-28T12:54:10;12.65;;;7.10;;
86135;SDS011;76795;51.360;4.546;2024-02-28T12:56:36;8.82;;;6.25;;
86135;SDS011;76795;51.360;4.546;2024-02-28T12:59:03;13.27;;;6.25;;
86135;SDS011;76795;51.360;4.546;2024-02-28T13:01:29;12.73;;;6.45;;
86135;SDS011;76795;51.360;4.546;2024-02-28T13:03:55;11.75;;;6.15;;
86135;SDS011;76795;51.360;4.546;2024-02-28T13:06:21;34.08;;;16.95;;
86135;SDS011;76795;51.360;4.546;2024-02-28T13:08:47;13.98;;;7.43;;
86135;SDS011;76795;51.360;4.546;2024-02-28T13:11:20;21.98;;;12.50;;
86135;SDS011;76795;51.360;4.546;2024-02-28T13:13:47;13.18;;;6.88;;
86135;SDS011;76795;51.360;4.546;2024-02-28T13:16:14;10.23;;;6.05;;
86135;SDS011;76795;51.360;4.546;2024-02-28T13:18:41;12.93;;;9.27;;
86135;SDS011;76795;51.360;4.546;2024-02-28T13:21:07;11.75;;;7.05;;
86135;SDS011;76795;51.360;4.546;2024-02-28T13:23:34;12.65;;;7.43;;
86135;SDS011;76795;51.360;4.546;2024-02-28T13:26:00;16.45;;;7.53;;
86135;SDS011;76795;51.360;4.546;2024-02-28T13:28:29;11.48;;;7.35;;
86135;SDS011;76795;51.360;4.546;2024-02-28T13:30:58;11.32;;;7.97;;
86135;SDS011;76795;51.360;4.546;2024-02-28T13:33:24;12.20;;;8.30;;
86135;SDS011;76795;51.360;4.546;2024-02-28T13:35:50;11.98;;;7.65;;
86135;SDS011;76795;51.360;4.546;2024-02-28T13:38:16;13.43;;;8.15;;
86135;SDS011;76795;51.360;4.546;2024-02-28T13:40:44;11.98;;;7.88;;
86135;SDS011;76795;51.360;4.546;2024-02-28T13:43:11;13.20;;;9.05;;
86135;SDS011;76795;51.360;4.546;2024-02-28T13:45:40;11.65;;;8.30;;
86135;SDS011;76795;51.360;4.546;2024-02-28T13:48:15;11.68;;;8.18;;
86135;SDS011;76795;51.360;4.546;2024-02-28T13:50:42;11.70;;;8.25;;
86135;SDS011;76795;51.360;4.546;2024-02-28T13:53:11;13.40;;;8.95;;
86135;SDS011;76795;51.360;4.546;2024-02-28T13:55:37;13.50;;;8.73;;
86135;SDS011;76795;51.360;4.546;2024-02-28T13:58:03;13.27;;;8.43;;
86135;SDS011;76795;51.360;4.546;2024-02-28T14:00:30;12.18;;;8.20;;
86135;SDS011;76795;51.360;4.546;2024-02-28T14:02:55;11.25;;;7.85;;
86135;SDS011;76795;51.360;4.546;2024-02-28T14:05:21;13.48;;;7.95;;
86135;SDS011;76795;51.360;4.546;2024-02-28T14:07:47;12.52;;;7.82;;
86135;SDS011;76795;51.360;4.546;2024-02-28T14:10:12;13.98;;;8.45;;
86135;SDS011;76795;51.360;4.546;2024-02-28T14:12:41;14.73;;;8.63;;
86135;SDS011;76795;51.360;4.546;2024-02-28T14:15:07;14.10;;;7.85;;
86135;SDS011;76795;51.360;4.546;2024-02-28T14:17:34;11.48;;;6.93;;
86135;SDS011;76795;51.360;4.546;2024-02-28T14:19:59;14.23;;;8.98;;
86135;SDS011;76795;51.360;4.546;2024-02-28T14:22:25;10.05;;;7.32;;
86135;SDS011;76795;51.360;4.546;2024-02-28T14:24:51;9.50;;;6.60;;
86135;SDS011;76795;51.360;4.546;2024-02-28T14:27:17;9.73;;;6.45;;